Time;durP1;ratioP1;P1;durP2;ratioP2;P2;SDS_P1;SDS_P2;PMS_P1;PMS_P2;Temp;Humidity;BMP_temperature;BMP_pressure;BME280_temperature;BME280_humidity;BME280_pressure;Samples;Min_cycle;Max_cycle;Signal;HPM_P1;HPM_P2
2023/01/18 00:01:54;;;;;;;18.53;8.33;;;0.10;91.70;;;;;;5036718;28;20033;-80
2023/01/18 00:04:20;;;;;;;14.47;7.43;;;0.10;91.80;;;;;;5052908;28;20457;-80
2023/01/18 00:06:46;;;;;;;19.80;8.07;;;0.10;91.80;;;;;;5020167;28;20044;-80
2023/01/18 00:09:12;;;;;;;15.03;8.13;;;0.00;91.90;;;;;;5053411;28;20029;-80
2023/01/18 00:11:39;;;;;;;15.93;8.23;;;0.00;92.00;;;;;;5036268;28;20022;-81
2023/01/18 00:14:05;;;;;;;17.23;8.93;;;0.00;92.10;;;;;;5054207;28;20109;-81
2023/01/18 00:16:31;;;;;;;18.40;8.67;;;0.00;92.20;;;;;;5052521;28;20071;-82
2023/01/18 00:18:57;;;;;;;15.87;8.63;;;0.00;92.20;;;;;;5019973;28;20473;-81
2023/01/18 00:21:25;;;;;;;15.63;8.57;;;0.00;92.30;;;;;;5054020;28;20028;-81
2023/01/18 00:23:51;;;;;;;19.90;8.67;;;0.00;92.40;;;;;;5036489;28;20029;-81
2023/01/18 00:26:17;;;;;;;15.33;8.83;;;0.00;92.50;;;;;;5052917;28;20039;-81
2023/01/18 00:28:43;;;;;;;17.43;7.57;;;0.10;92.60;;;;;;5036042;28;20025;-81
2023/01/18 00:31:15;;;;;;;16.97;8.60;;;0.00;92.60;;;;;;5053149;28;20134;-80
2023/01/18 00:33:45;;;;;;;15.07;8.73;;;0.00;92.60;;;;;;5052687;28;20535;-80
2023/01/18 00:36:12;;;;;;;16.53;8.70;;;0.00;92.60;;;;;;5053956;28;20056;-80
2023/01/18 00:38:38;;;;;;;19.37;8.90;;;0.00;92.60;;;;;;5035706;28;20047;-81
2023/01/18 00:41:03;;;;;;;15.57;7.73;;;-0.10;92.70;;;;;;5052545;28;20112;-81
2023/01/18 00:43:38;;;;;;;17.40;8.23;;;-0.10;92.80;;;;;;5053620;28;20040;-80
2023/01/18 00:46:24;;;;;;;17.67;9.10;;;-0.10;92.80;;;;;;5036334;28;20039;-81
2023/01/18 00:48:51;;;;;;;15.30;8.43;;;-0.10;92.90;;;;;;5052821;28;20393;-80
2023/01/18 00:51:24;;;;;;;17.50;8.47;;;-0.10;92.90;;;;;;5035760;28;20029;-81
2023/01/18 00:53:50;;;;;;;17.97;9.30;;;-0.10;93.00;;;;;;5052033;28;20104;-80
2023/01/18 00:56:20;;;;;;;16.60;8.40;;;-0.20;93.10;;;;;;5052499;28;20071;-81
2023/01/18 00:58:46;;;;;;;17.80;9.03;;;-0.20;93.10;;;;;;5053319;28;20064;-80
2023/01/18 01:01:13;;;;;;;16.97;8.40;;;-0.20;93.20;;;;;;5035752;28;20060;-80
2023/01/18 01:06:43;;;;;;;16.98;8.52;;;-0.10;93.30;;;;;;5053328;28;20069;-80
2023/01/18 01:09:16;;;;;;;18.50;10.10;;;-0.10;93.40;;;;;;5052075;28;20028;-80
2023/01/18 01:12:31;;;;;;;14.57;8.73;;;-0.20;93.40;;;;;;5052128;28;20036;-79
2023/01/18 01:28:09;;;;;;;;;;;-0.30;93.60;;;;;;5052614;28;20504;-80
2023/01/18 01:30:35;;;;;;;13.70;7.53;;;-0.30;93.70;;;;;;5051839;28;19905;-80
2023/01/18 01:33:00;;;;;;;15.80;8.13;;;-0.30;93.70;;;;;;5035346;28;20027;-80
2023/01/18 01:35:26;;;;;;;15.30;7.70;;;-0.30;93.70;;;;;;5051171;28;20029;-79
2023/01/18 01:37:51;;;;;;;14.80;8.10;;;-0.30;93.70;;;;;;5034777;28;20048;-80
2023/01/18 01:40:17;;;;;;;16.07;7.13;;;-0.40;93.80;;;;;;5034871;28;20040;-80
2023/01/18 01:42:43;;;;;;;18.93;7.83;;;-0.40;93.80;;;;;;5051644;28;20025;-80
2023/01/18 01:45:09;;;;;;;19.93;9.40;;;-0.40;94.00;;;;;;5035253;28;20025;-79
2023/01/18 01:47:43;;;;;;;14.00;7.53;;;-0.40;94.10;;;;;;5051285;28;20078;-79
2023/01/18 01:50:13;;;;;;;;;;;-0.40;94.10;;;;;;5035242;28;20037;-80
2023/01/18 01:52:41;;;;;;;14.47;6.90;;;-0.40;94.20;;;;;;5051705;28;19904;-79
2023/01/18 01:55:10;;;;;;;16.23;7.47;;;-0.40;94.20;;;;;;5053211;28;20037;-79
2023/01/18 01:57:41;;;;;;;14.87;7.87;;;-0.40;94.20;;;;;;5051334;28;20037;-79
2023/01/18 02:00:10;;;;;;;16.47;7.50;;;-0.40;94.30;;;;;;5054857;28;20376;-79
2023/01/18 02:02:37;;;;;;;19.27;8.97;;;-0.40;94.30;;;;;;5056810;28;20021;-80
2023/01/18 02:05:05;;;;;;;19.30;8.97;;;-0.50;94.40;;;;;;5038280;28;20123;-79
2023/01/18 02:07:31;;;;;;;15.53;8.77;;;-0.50;94.50;;;;;;5057114;28;20025;-80
2023/01/18 02:09:58;;;;;;;20.90;9.00;;;-0.50;94.60;;;;;;5038433;28;20120;-80
2023/01/18 02:12:25;;;;;;;14.50;8.00;;;-0.50;94.60;;;;;;5055610;28;20017;-79
2023/01/18 02:14:52;;;;;;;19.47;9.47;;;-0.50;94.70;;;;;;5055326;28;20029;-80
2023/01/18 02:17:39;;;;;;;16.03;8.30;;;-0.50;94.80;;;;;;5039082;28;20460;-80
2023/01/18 02:20:39;;;;;;;15.77;8.27;;;-0.50;94.80;;;;;;5058918;28;20028;-79
2023/01/18 02:23:10;;;;;;;15.70;8.37;;;-0.50;94.90;;;;;;5060065;28;20448;-79
2023/01/18 02:25:42;;;;;;;20.80;8.73;;;-0.40;95.00;;;;;;5057229;28;20029;-80
2023/01/18 02:28:09;;;;;;;15.47;8.40;;;-0.50;95.00;;;;;;5058177;28;20017;-79
2023/01/18 02:31:10;;;;;;;18.43;8.63;;;-0.50;95.00;;;;;;5057905;28;20021;-79
2023/01/18 02:33:41;;;;;;;15.27;7.97;;;-0.60;95.00;;;;;;5055805;28;20464;-80
2023/01/18 02:36:07;;;;;;;14.70;8.60;;;-0.60;95.10;;;;;;5058421;28;20022;-79
2023/01/18 02:38:43;;;;;;;13.20;6.90;;;-0.60;95.20;;;;;;5041235;28;20049;-79
2023/01/18 02:41:18;;;;;;;16.43;8.83;;;-0.60;95.20;;;;;;5055059;28;20028;-80
2023/01/18 02:46:33;;;;;;;18.03;8.53;;;-0.60;95.30;;;;;;5057608;28;20090;-80
2023/01/18 02:49:21;;;;;;;17.37;8.83;;;-0.60;95.40;;;;;;5054375;28;20120;-79
2023/01/18 02:51:47;;;;;;;19.50;9.60;;;-0.70;95.40;;;;;;5054786;28;20395;-80
2023/01/18 02:54:23;;;;;;;16.77;8.77;;;-0.70;95.40;;;;;;5056188;28;20025;-80
2023/01/18 02:56:51;;;;;;;16.63;7.93;;;-0.70;95.40;;;;;;5054629;28;20048;-79
2023/01/18 02:59:23;;;;;;;18.03;8.07;;;-0.60;95.50;;;;;;5054663;28;20036;-80
2023/01/18 03:01:56;;;;;;;18.27;10.00;;;-0.70;95.60;;;;;;5054035;28;20377;-79
2023/01/18 03:04:28;;;;;;;15.45;7.43;;;-0.70;95.60;;;;;;5054513;28;20078;-79
2023/01/18 03:07:00;;;;;;;14.67;7.70;;;-0.70;95.70;;;;;;5054255;28;20502;-80
2023/01/18 03:09:26;;;;;;;15.93;7.90;;;-0.70;95.70;;;;;;5054309;28;20021;-81
2023/01/18 03:12:19;;;;;;;15.13;8.07;;;-0.70;95.80;;;;;;5054601;28;20477;-80
2023/01/18 03:14:53;;;;;;;19.33;8.47;;;-0.70;95.80;;;;;;5054389;28;20021;-80
2023/01/18 03:17:36;;;;;;;17.13;8.77;;;-0.80;95.90;;;;;;5054227;28;20033;-80
2023/01/18 03:20:10;;;;;;;15.03;8.07;;;-0.80;95.90;;;;;;5054338;28;20366;-79
2023/01/18 03:25:33;;;;;;;15.00;8.43;;;-0.80;96.00;;;;;;5055100;28;20512;-80
2023/01/18 03:33:46;;;;;;;15.07;7.90;;;-0.80;96.20;;;;;;5054158;28;20141;-80
2023/01/18 03:36:32;;;;;;;17.57;7.60;;;-0.80;96.30;;;;;;5053478;28;20021;-80
2023/01/18 03:39:12;;;;;;;18.27;8.13;;;-0.90;96.40;;;;;;5052794;28;20511;-80
2023/01/18 03:41:42;;;;;;;18.00;8.37;;;-0.80;96.50;;;;;;5053581;28;20059;-81
2023/01/18 03:44:15;;;;;;;18.47;8.10;;;-0.90;96.50;;;;;;5054016;28;20067;-80
2023/01/18 03:46:42;;;;;;;19.43;9.57;;;-0.80;96.60;;;;;;5053192;28;20271;-80
2023/01/18 03:49:09;;;;;;;17.03;8.37;;;-0.90;96.70;;;;;;5037415;28;20040;-80
2023/01/18 03:52:11;;;;;;;16.03;8.77;;;-0.80;96.80;;;;;;5054743;28;20098;-79
2023/01/18 03:54:45;;;;;;;15.37;7.80;;;-0.80;96.80;;;;;;5053476;28;20287;-80
2023/01/18 03:57:23;;;;;;;17.20;7.93;;;-0.90;96.80;;;;;;5054710;28;20040;-80
2023/01/18 03:59:49;;;;;;;15.10;7.70;;;-0.80;96.80;;;;;;5053012;28;20021;-80
2023/01/18 04:02:17;;;;;;;17.83;8.87;;;-0.80;96.90;;;;;;5053804;28;20024;-80
2023/01/18 04:04:42;;;;;;;14.57;7.83;;;-0.90;96.90;;;;;;5052908;28;20283;-80
2023/01/18 04:07:08;;;;;;;15.27;7.93;;;-0.90;96.90;;;;;;5020032;28;20029;-81
2023/01/18 04:09:34;;;;;;;17.30;8.60;;;-0.90;97.00;;;;;;5036159;28;20120;-80
2023/01/18 04:11:59;;;;;;;16.23;7.97;;;-1.00;97.00;;;;;;5020015;28;20040;-80
2023/01/18 04:14:25;;;;;;;19.13;8.43;;;-1.00;97.10;;;;;;5036517;28;20029;-80
2023/01/18 04:16:51;;;;;;;13.73;8.00;;;-1.00;97.20;;;;;;5053201;28;20048;-80
2023/01/18 04:19:16;;;;;;;16.33;8.07;;;-1.00;97.30;;;;;;5036160;28;20033;-80
2023/01/18 04:21:42;;;;;;;17.07;8.30;;;-1.00;97.50;;;;;;5018859;28;20025;-80
2023/01/18 04:24:08;;;;;;;15.43;8.63;;;-1.00;97.60;;;;;;5019693;28;20477;-80
2023/01/18 04:26:34;;;;;;;16.77;9.10;;;-0.90;97.70;;;;;;5036368;28;20078;-80
2023/01/18 04:29:00;;;;;;;15.53;8.00;;;-0.90;97.80;;;;;;5053023;28;20142;-80
2023/01/18 04:31:25;;;;;;;12.67;7.67;;;-1.00;97.80;;;;;;5054129;28;20437;-80
2023/01/18 04:33:51;;;;;;;14.17;7.90;;;-1.00;97.80;;;;;;5035901;28;20044;-79
2023/01/18 04:36:19;;;;;;;17.90;9.20;;;-1.00;97.90;;;;;;5052149;28;20064;-79
2023/01/18 04:38:44;;;;;;;12.73;7.57;;;-1.00;97.90;;;;;;5035964;28;20049;-80
2023/01/18 04:41:10;;;;;;;15.90;7.80;;;-1.00;97.90;;;;;;5036286;28;20289;-79
2023/01/18 04:43:36;;;;;;;17.10;8.50;;;-1.00;98.00;;;;;;5019562;28;20028;-79
2023/01/18 04:46:01;;;;;;;15.97;8.10;;;-1.00;98.20;;;;;;5052301;28;20481;-79
2023/01/18 04:48:27;;;;;;;13.30;8.03;;;-0.90;98.30;;;;;;5052311;28;20066;-80
2023/01/18 04:50:53;;;;;;;19.17;8.83;;;-1.00;98.40;;;;;;5052573;28;20033;-79
2023/01/18 04:53:19;;;;;;;17.23;8.97;;;-1.00;98.40;;;;;;5052049;28;20021;-80
2023/01/18 04:55:45;;;;;;;15.67;7.67;;;-1.10;98.40;;;;;;5052534;28;20088;-79
2023/01/18 04:58:11;;;;;;;16.47;8.50;;;-1.10;98.40;;;;;;5051972;28;20870;-80
2023/01/18 05:00:40;;;;;;;15.80;8.50;;;-1.10;98.40;;;;;;5019490;28;20056;-80
2023/01/18 05:03:10;;;;;;;17.40;9.23;;;-1.00;98.50;;;;;;5052255;28;20029;-80
2023/01/18 05:05:35;;;;;;;16.97;8.67;;;-1.10;98.50;;;;;;5035247;28;20307;-80
2023/01/18 05:08:01;;;;;;;16.57;9.40;;;-1.10;98.50;;;;;;5035544;28;20275;-79
2023/01/18 05:10:27;;;;;;;19.33;8.30;;;-1.10;98.50;;;;;;5052015;28;20033;-80
2023/01/18 05:12:53;;;;;;;16.27;8.50;;;-1.10;98.60;;;;;;5052324;28;20033;-80
2023/01/18 05:15:18;;;;;;;19.53;9.50;;;-1.00;98.70;;;;;;5035276;28;20775;-80
2023/01/18 05:17:44;;;;;;;16.40;8.63;;;-1.10;98.90;;;;;;5035190;28;20432;-81
2023/01/18 05:20:11;;;;;;;17.70;8.93;;;-1.10;99.00;;;;;;5035106;28;20021;-81
2023/01/18 05:22:36;;;;;;;15.47;8.17;;;-1.10;99.00;;;;;;5034807;28;20029;-81
2023/01/18 05:25:03;;;;;;;15.10;7.77;;;-1.20;98.90;;;;;;5052326;28;20021;-80
2023/01/18 05:27:29;;;;;;;16.70;8.87;;;-1.10;98.90;;;;;;5052033;28;20028;-78
2023/01/18 05:29:55;;;;;;;14.90;8.03;;;-1.10;98.90;;;;;;5052096;28;20284;-80
2023/01/18 05:32:20;;;;;;;18.07;9.27;;;-1.20;99.00;;;;;;5051291;28;20029;-80
2023/01/18 05:34:46;;;;;;;18.43;9.53;;;-1.10;99.20;;;;;;5051593;28;20040;-79
2023/01/18 05:37:12;;;;;;;20.13;9.27;;;-1.20;99.20;;;;;;5051634;28;20477;-80
2023/01/18 05:39:37;;;;;;;26.10;10.20;;;-1.20;99.20;;;;;;5035804;28;20053;-80
2023/01/18 05:42:04;;;;;;;16.97;8.63;;;-1.20;99.30;;;;;;5036716;28;20033;-80
2023/01/18 05:44:30;;;;;;;16.37;8.43;;;-1.20;99.30;;;;;;5062581;28;20048;-80
2023/01/18 05:46:56;;;;;;;18.97;9.43;;;-1.20;99.40;;;;;;5037115;28;20037;-80
2023/01/18 05:49:22;;;;;;;15.73;8.30;;;-1.10;99.50;;;;;;5064092;28;20033;-80
2023/01/18 05:51:48;;;;;;;15.90;7.97;;;-1.20;99.50;;;;;;5030877;28;20734;-81
2023/01/18 05:54:13;;;;;;;18.27;8.10;;;-1.20;99.60;;;;;;5030457;28;20453;-81
2023/01/18 05:56:39;;;;;;;18.00;7.50;;;-1.20;99.70;;;;;;5030833;28;20466;-81
2023/01/18 05:59:05;;;;;;;17.60;8.47;;;-1.20;99.80;;;;;;5031866;28;20072;-80
2023/01/18 06:01:30;;;;;;;15.47;7.60;;;-1.20;99.80;;;;;;5029047;28;20037;-79
2023/01/18 06:03:56;;;;;;;17.73;8.77;;;-1.30;99.80;;;;;;5013668;28;20029;-80
2023/01/18 06:06:22;;;;;;;20.63;7.83;;;-1.20;99.90;;;;;;4997077;28;20462;-79
2023/01/18 06:08:47;;;;;;;17.80;8.93;;;-1.20;99.90;;;;;;4998150;28;20029;-80
2023/01/18 06:11:13;;;;;;;18.23;8.37;;;-1.30;99.90;;;;;;5014927;28;20145;-80
2023/01/18 06:13:39;;;;;;;16.43;8.13;;;-1.20;99.90;;;;;;5031166;28;20545;-81
2023/01/18 06:16:05;;;;;;;17.53;7.97;;;-1.30;99.90;;;;;;5014072;28;20593;-80
2023/01/18 06:18:31;;;;;;;15.93;8.40;;;-1.30;99.90;;;;;;5014824;28;20386;-81
2023/01/18 06:20:59;;;;;;;16.90;7.93;;;-1.20;99.90;;;;;;5015059;28;20284;-80
2023/01/18 06:23:26;;;;;;;21.90;7.67;;;-1.20;99.90;;;;;;5031396;28;20337;-80
2023/01/18 06:25:51;;;;;;;16.40;9.07;;;-1.30;99.90;;;;;;5031381;28;20745;-80
2023/01/18 06:28:21;;;;;;;14.43;8.23;;;-1.20;99.90;;;;;;5031160;28;20390;-79
2023/01/18 06:30:51;;;;;;;14.70;7.70;;;-1.20;99.90;;;;;;5031350;28;20132;-81
2023/01/18 06:33:17;;;;;;;16.23;8.07;;;-1.30;99.90;;;;;;5015738;28;20342;-79
2023/01/18 06:35:42;;;;;;;13.83;7.57;;;-1.30;99.90;;;;;;5031167;28;20312;-79
2023/01/18 06:38:09;;;;;;;13.87;7.77;;;-1.30;99.90;;;;;;5030991;28;20049;-80
2023/01/18 06:40:35;;;;;;;14.63;7.77;;;-1.30;99.90;;;;;;5031178;28;20057;-79
2023/01/18 06:43:01;;;;;;;16.33;8.27;;;-1.30;99.90;;;;;;5047620;28;20280;-79
2023/01/18 06:45:28;;;;;;;18.73;8.37;;;-1.40;99.90;;;;;;5033725;28;20400;-80
2023/01/18 06:47:54;;;;;;;14.40;7.90;;;-1.30;99.90;;;;;;5018214;28;20034;-80
2023/01/18 06:50:19;;;;;;;16.57;7.97;;;-1.30;99.90;;;;;;5051499;28;20678;-80
2023/01/18 06:52:45;;;;;;;14.90;7.80;;;-1.30;99.90;;;;;;5034704;28;20037;-79
2023/01/18 06:55:12;;;;;;;15.57;7.80;;;-1.30;99.90;;;;;;5034562;28;20028;-81
2023/01/18 06:57:38;;;;;;;18.33;10.07;;;-1.30;99.90;;;;;;5034663;28;20474;-80
2023/01/18 07:00:05;;;;;;;16.67;8.43;;;-1.30;99.90;;;;;;5034554;28;20288;-80
2023/01/18 07:02:32;;;;;;;16.43;8.27;;;-1.20;99.90;;;;;;5034326;28;20030;-80
2023/01/18 07:04:57;;;;;;;14.80;7.33;;;-1.30;99.90;;;;;;5017215;28;20280;-79
2023/01/18 07:07:23;;;;;;;13.90;7.17;;;-1.30;99.90;;;;;;5002164;28;20292;-80
2023/01/18 07:09:49;;;;;;;20.73;7.90;;;-1.30;99.90;;;;;;5035212;28;20065;-81
2023/01/18 07:12:14;;;;;;;15.87;7.70;;;-1.40;99.90;;;;;;5054313;28;20461;-80
2023/01/18 07:14:40;;;;;;;14.90;7.10;;;-1.30;99.90;;;;;;5037932;28;20120;-80
2023/01/18 07:17:07;;;;;;;15.40;7.37;;;-1.30;99.90;;;;;;5054607;28;20033;-80
2023/01/18 07:19:33;;;;;;;13.07;7.03;;;-1.30;99.90;;;;;;5038582;28;20123;-81
2023/01/18 07:21:59;;;;;;;14.47;7.47;;;-1.30;99.90;;;;;;5054290;28;20271;-80
2023/01/18 07:24:25;;;;;;;15.97;7.53;;;-1.30;99.90;;;;;;5037173;28;20104;-79
2023/01/18 07:26:51;;;;;;;15.10;7.17;;;-1.30;99.90;;;;;;5036964;28;20275;-80
2023/01/18 07:29:16;;;;;;;13.80;7.23;;;-1.30;99.90;;;;;;5053825;28;20095;-80
2023/01/18 07:31:42;;;;;;;13.27;7.43;;;-1.30;99.90;;;;;;5036666;28;20055;-79
2023/01/18 07:34:09;;;;;;;17.67;8.20;;;-1.20;99.90;;;;;;5037376;28;20116;-82
2023/01/18 07:36:37;;;;;;;16.87;7.93;;;-1.30;99.90;;;;;;5035546;28;20076;-79
2023/01/18 07:39:03;;;;;;;14.60;6.97;;;-1.30;99.90;;;;;;5043869;28;20606;-79
2023/01/18 07:41:29;;;;;;;16.60;7.30;;;-1.30;99.90;;;;;;5031225;28;20295;-79
2023/01/18 07:43:55;;;;;;;16.00;6.97;;;-1.30;99.90;;;;;;5033707;28;20299;-79
2023/01/18 07:46:21;;;;;;;13.73;7.27;;;-1.30;99.90;;;;;;5053490;28;20457;-79
2023/01/18 07:48:47;;;;;;;18.47;7.70;;;-1.30;99.90;;;;;;5053095;28;20291;-79
2023/01/18 07:51:13;;;;;;;15.20;7.47;;;-1.20;99.90;;;;;;5054829;28;20037;-80
2023/01/18 07:53:39;;;;;;;15.07;7.13;;;-1.20;99.90;;;;;;5053267;28;20021;-80
2023/01/18 07:56:07;;;;;;;19.47;8.00;;;-1.20;99.90;;;;;;5048276;28;20357;-79
2023/01/18 07:58:45;;;;;;;15.93;7.97;;;-1.20;99.90;;;;;;5043352;28;20377;-81
2023/01/18 08:01:17;;;;;;;15.07;7.33;;;-1.20;99.90;;;;;;5053330;28;20025;-80
2023/01/18 08:03:43;;;;;;;15.43;7.33;;;-1.20;99.90;;;;;;5054883;28;20531;-81
2023/01/18 08:06:11;;;;;;;13.87;7.20;;;-1.10;99.90;;;;;;5053804;28;20366;-80
2023/01/18 08:08:37;;;;;;;16.17;7.27;;;-1.20;99.90;;;;;;5052015;28;20033;-79
2023/01/18 08:11:04;;;;;;;15.33;7.87;;;-1.10;99.90;;;;;;5036531;28;20279;-79
2023/01/18 08:13:30;;;;;;;13.87;7.53;;;-1.10;99.90;;;;;;5036514;28;20093;-79
2023/01/18 08:15:59;;;;;;;16.93;8.47;;;-1.10;99.90;;;;;;5053004;28;20287;-81
2023/01/18 08:18:25;;;;;;;19.67;8.63;;;-1.10;99.90;;;;;;5052846;28;20033;-80
2023/01/18 08:20:51;;;;;;;15.40;7.63;;;-1.10;99.90;;;;;;5052656;28;20033;-79
2023/01/18 08:23:17;;;;;;;15.63;7.70;;;-1.00;99.90;;;;;;5052556;28;20033;-80
2023/01/18 08:25:43;;;;;;;12.77;7.53;;;-1.00;99.90;;;;;;5052588;28;20276;-80
2023/01/18 08:28:10;;;;;;;19.50;8.50;;;-1.00;99.90;;;;;;5035793;28;20033;-81
2023/01/18 08:30:39;;;;;;;20.70;8.87;;;-1.00;99.90;;;;;;5052223;28;20044;-80
2023/01/18 08:33:06;;;;;;;14.30;7.80;;;-0.90;99.90;;;;;;5053896;28;20275;-80
2023/01/18 08:35:34;;;;;;;18.80;8.70;;;-0.90;99.90;;;;;;5031996;28;20075;-80
2023/01/18 08:38:00;;;;;;;17.77;8.23;;;-0.90;99.90;;;;;;5050346;28;20091;-80
2023/01/18 08:40:27;;;;;;;15.63;7.50;;;-0.90;99.90;;;;;;5031077;28;20424;-80
2023/01/18 08:42:58;;;;;;;16.23;8.63;;;-0.90;99.90;;;;;;5021212;28;20032;-80
2023/01/18 08:45:24;;;;;;;12.73;7.33;;;-0.90;99.90;;;;;;5032255;28;20063;-79
2023/01/18 08:48:01;;;;;;;15.17;7.63;;;-0.90;99.90;;;;;;5033767;28;20067;-80
2023/01/18 08:50:27;;;;;;;15.37;8.70;;;-0.80;99.90;;;;;;5032183;28;20438;-80
2023/01/18 08:52:54;;;;;;;17.07;9.17;;;-0.70;99.90;;;;;;5033552;28;20021;-80
2023/01/18 08:55:21;;;;;;;16.47;8.70;;;-0.70;99.90;;;;;;5016048;28;20034;-79
2023/01/18 08:57:47;;;;;;;17.23;8.77;;;-0.70;99.90;;;;;;5032119;28;20386;-80
2023/01/18 09:00:14;;;;;;;17.50;9.23;;;-0.60;99.90;;;;;;5015848;28;20022;-80
2023/01/18 09:02:40;;;;;;;20.87;10.47;;;-0.50;99.90;;;;;;5032690;28;20456;-81
2023/01/18 09:05:05;;;;;;;19.37;9.40;;;-0.50;99.90;;;;;;5015534;28;20063;-80
2023/01/18 09:07:31;;;;;;;22.43;10.07;;;-0.50;99.90;;;;;;5031557;28;20033;-80
2023/01/18 09:09:57;;;;;;;17.63;9.13;;;-0.50;99.90;;;;;;5016079;28;20079;-80
2023/01/18 09:12:23;;;;;;;20.33;10.17;;;-0.40;99.90;;;;;;5033625;28;20038;-80
2023/01/18 09:14:49;;;;;;;18.40;8.90;;;-0.40;99.90;;;;;;5015880;28;20034;-80
2023/01/18 09:17:16;;;;;;;22.83;10.57;;;-0.30;99.90;;;;;;5015610;28;20429;-80
2023/01/18 09:19:42;;;;;;;17.47;9.47;;;-0.20;99.90;;;;;;5031940;28;20079;-80
2023/01/18 09:22:09;;;;;;;19.13;9.70;;;-0.20;99.90;;;;;;5032073;28;20553;-80
2023/01/18 09:24:35;;;;;;;23.07;11.07;;;-0.20;99.90;;;;;;5031766;28;20390;-80
2023/01/18 09:27:01;;;;;;;17.27;10.57;;;0.00;99.90;;;;;;5032375;28;20098;-80
2023/01/18 09:29:27;;;;;;;18.87;10.27;;;0.00;99.90;;;;;;5031950;28;20037;-80
2023/01/18 09:31:54;;;;;;;16.97;9.07;;;0.00;99.90;;;;;;5016072;28;20413;-80
2023/01/18 09:34:20;;;;;;;19.83;9.83;;;0.10;99.90;;;;;;5015626;28;20500;-79
2023/01/18 09:36:49;;;;;;;15.57;9.27;;;0.20;99.90;;;;;;5033227;28;20026;-80
2023/01/18 09:39:15;;;;;;;19.63;10.07;;;0.30;99.90;;;;;;5032873;28;20037;-80
2023/01/18 09:41:43;;;;;;;16.20;9.07;;;0.50;99.90;;;;;;5015670;28;20041;-80
2023/01/18 09:44:32;;;;;;;16.87;9.40;;;0.70;99.90;;;;;;5031634;28;20059;-81
2023/01/18 09:47:23;;;;;;;15.83;9.30;;;1.00;99.90;;;;;;5031845;28;20022;-81
2023/01/18 09:49:52;;;;;;;14.63;7.93;;;1.30;99.90;;;;;;5032907;28;20028;-82
2023/01/18 09:52:48;;;;;;;16.50;8.53;;;1.80;99.90;;;;;;5031767;28;20026;-81
2023/01/18 09:55:40;;;;;;;13.57;8.10;;;2.20;99.90;;;;;;5031213;28;20044;-82
2023/01/18 09:58:36;;;;;;;13.30;7.53;;;2.80;99.90;;;;;;5031163;28;20049;-79
2023/01/18 10:01:13;;;;;;;28.83;9.37;;;3.50;99.90;;;;;;5031643;28;20053;-82
2023/01/18 10:03:55;;;;;;;11.23;6.60;;;4.20;99.90;;;;;;5031154;28;20030;-80
2023/01/18 10:06:25;;;;;;;11.70;6.47;;;4.90;99.90;;;;;;5031318;28;20351;-83
2023/01/18 10:09:14;;;;;;;10.60;6.37;;;5.30;99.90;;;;;;5048482;28;20022;-79
2023/01/18 10:11:47;;;;;;;10.80;5.33;;;6.10;99.90;;;;;;5030386;28;20490;-82
2023/01/18 10:14:20;;;;;;;9.32;4.63;;;6.80;99.90;;;;;;5039872;28;20032;-80
2023/01/18 10:16:58;;;;;;;10.88;5.47;;;7.50;99.90;;;;;;5037645;28;20048;-80
2023/01/18 10:19:29;;;;;;;11.13;4.85;;;8.40;99.90;;;;;;5033660;28;20115;-81
2023/01/18 10:22:07;;;;;;;11.48;5.25;;;9.10;99.90;;;;;;5036363;28;20486;-80
2023/01/18 10:25:00;;;;;;;8.57;4.55;;;9.80;99.90;;;;;;5035354;28;20029;-81
2023/01/18 10:27:42;;;;;;;8.90;5.10;;;10.50;99.90;;;;;;5035324;28;20025;-80
2023/01/18 10:30:20;;;;;;;9.80;5.10;;;11.00;99.90;;;;;;5035266;28;20232;-80
2023/01/18 10:32:53;;;;;;;8.95;4.90;;;11.50;99.90;;;;;;5036742;28;20032;-81
2023/01/18 10:35:35;;;;;;;9.63;5.30;;;12.00;99.00;;;;;;5034211;28;20024;-81
2023/01/18 10:38:10;;;;;;;7.63;5.07;;;12.30;95.40;;;;;;5034541;28;20038;-80
2023/01/18 10:40:38;;;;;;;8.13;4.88;;;12.40;92.00;;;;;;5035956;28;20046;-80
2023/01/18 10:43:09;;;;;;;8.70;5.22;;;12.40;90.30;;;;;;5035564;28;20108;-80
2023/01/18 10:45:35;;;;;;;12.82;5.40;;;12.40;85.00;;;;;;5034083;28;20113;-79
2023/01/18 10:48:29;;;;;;;12.82;5.00;;;12.50;80.40;;;;;;5034465;28;20057;-79
2023/01/18 10:51:07;;;;;;;9.70;4.68;;;12.40;77.00;;;;;;5034659;28;20040;-79
2023/01/18 10:53:37;;;;;;;13.38;5.40;;;12.10;74.40;;;;;;5034355;28;20024;-79
2023/01/18 10:56:09;;;;;;;11.23;4.68;;;11.80;72.90;;;;;;5034698;28;20042;-79
2023/01/18 10:58:50;;;;;;;8.73;4.63;;;11.60;71.60;;;;;;5034608;28;20092;-79
2023/01/18 11:01:22;;;;;;;10.77;4.75;;;11.20;69.60;;;;;;5034124;28;20128;-79
2023/01/18 11:04:07;;;;;;;10.25;4.68;;;11.10;70.60;;;;;;5046969;28;20025;-79
2023/01/18 11:06:52;;;;;;;10.00;4.47;;;11.30;72.40;;;;;;5042151;28;20025;-79
2023/01/18 11:09:41;;;;;;;8.65;4.60;;;11.60;70.90;;;;;;5035739;28;20033;-79
2023/01/18 11:12:40;;;;;;;10.93;4.40;;;11.80;71.10;;;;;;5033953;28;20473;-79
2023/01/18 11:15:14;;;;;;;10.95;4.68;;;12.20;70.00;;;;;;5034036;28;20383;-80
2023/01/18 11:17:53;;;;;;;6.43;3.58;;;12.50;69.40;;;;;;5041714;28;20056;-80
2023/01/18 11:20:44;;;;;;;7.93;3.80;;;12.90;70.20;;;;;;5044244;28;20056;-82
2023/01/18 11:23:13;;;;;;;8.02;4.25;;;13.10;67.30;;;;;;5041751;28;20029;-80
2023/01/18 11:25:53;;;;;;;13.02;5.60;;;13.00;65.50;;;;;;5044065;28;20045;-80
2023/01/18 11:28:24;;;;;;;8.77;4.22;;;13.00;65.20;;;;;;5043931;28;20098;-81
2023/01/18 11:31:05;;;;;;;8.70;4.80;;;13.10;63.50;;;;;;5042038;28;20086;-80
2023/01/18 11:33:31;;;;;;;9.65;4.65;;;13.20;63.50;;;;;;5042821;28;20074;-79
2023/01/18 11:36:00;;;;;;;11.95;4.82;;;13.00;61.90;;;;;;5042931;28;20025;-80
2023/01/18 11:38:31;;;;;;;8.35;4.60;;;12.80;60.80;;;;;;5044065;28;20037;-79
2023/01/18 11:41:06;;;;;;;10.18;4.72;;;12.50;60.50;;;;;;5042957;28;20513;-80
2023/01/18 11:43:36;;;;;;;8.90;5.03;;;12.20;59.70;;;;;;5054745;28;20033;-80
2023/01/18 11:46:18;;;;;;;10.70;5.13;;;11.90;60.30;;;;;;5053741;28;20021;-79
2023/01/18 11:48:51;;;;;;;9.38;4.50;;;11.60;61.30;;;;;;5053396;28;20078;-79
2023/01/18 11:51:37;;;;;;;8.10;4.25;;;11.40;60.80;;;;;;5053635;28;20025;-79
2023/01/18 11:54:25;;;;;;;10.90;4.65;;;11.20;61.00;;;;;;5053158;28;20051;-80
2023/01/18 11:56:54;;;;;;;10.70;5.07;;;11.10;61.30;;;;;;5054720;28;20027;-79
2023/01/18 11:59:23;;;;;;;12.32;4.85;;;11.00;61.10;;;;;;5053294;28;20064;-80
2023/01/18 12:02:05;;;;;;;12.20;4.32;;;11.00;61.60;;;;;;5045487;28;20493;-79
2023/01/18 12:05:01;;;;;;;9.20;4.63;;;11.10;62.30;;;;;;5033162;28;20113;-80
2023/01/18 12:07:42;;;;;;;8.43;3.90;;;11.20;62.80;;;;;;5033352;28;20017;-80
2023/01/18 12:10:19;;;;;;;10.00;4.30;;;11.40;63.10;;;;;;5033255;28;20441;-81
2023/01/18 12:13:06;;;;;;;11.50;5.10;;;11.60;62.50;;;;;;5033224;28;20116;-81
2023/01/18 12:15:41;;;;;;;8.10;4.15;;;11.80;62.30;;;;;;5034475;28;20025;-79
2023/01/18 12:18:49;;;;;;;7.90;4.30;;;12.00;62.30;;;;;;5034135;28;20496;-80
2023/01/18 12:21:40;;;;;;;7.80;3.53;;;12.30;60.90;;;;;;5018703;28;20038;-80
2023/01/18 12:24:32;;;;;;;9.00;3.42;;;12.70;60.20;;;;;;5033349;28;20470;-80
2023/01/18 12:27:26;;;;;;;7.93;3.50;;;12.90;59.80;;;;;;5034653;28;20025;-80
2023/01/18 12:30:29;;;;;;;7.82;3.63;;;13.10;59.40;;;;;;5034185;28;20022;-80
2023/01/18 12:32:54;;;;;;;7.57;3.65;;;13.50;59.40;;;;;;5032710;28;20082;-80
2023/01/18 12:35:41;;;;;;;6.13;3.28;;;13.90;58.70;;;;;;5032140;28;20025;-80
2023/01/18 12:38:28;;;;;;;9.15;3.92;;;14.20;57.90;;;;;;5033795;28;20103;-79
2023/01/18 12:41:26;;;;;;;7.72;2.70;;;14.30;56.30;;;;;;5032318;28;20140;-81
2023/01/18 12:44:15;;;;;;;7.53;3.28;;;14.50;57.40;;;;;;5031589;28;20053;-80
2023/01/18 12:47:02;;;;;;;6.20;3.10;;;14.70;56.50;;;;;;5032314;28;20030;-79
2023/01/18 12:49:33;;;;;;;6.90;3.45;;;15.10;56.00;;;;;;5042963;28;20032;-80
2023/01/18 12:52:01;;;;;;;8.45;4.00;;;15.30;55.40;;;;;;5053431;28;20103;-80
2023/01/18 12:54:38;;;;;;;6.43;3.50;;;15.40;54.10;;;;;;5052318;28;20033;-80
2023/01/18 12:57:05;;;;;;;6.70;3.10;;;15.60;53.90;;;;;;5052064;28;20414;-80
2023/01/18 12:59:33;;;;;;;8.35;3.38;;;15.80;53.20;;;;;;5035654;28;20123;-80
2023/01/18 13:02:12;;;;;;;5.30;3.10;;;15.80;52.20;;;;;;5052225;28;20528;-79
2023/01/18 13:04:56;;;;;;;8.13;3.63;;;15.70;51.80;;;;;;5051695;28;20121;-80
2023/01/18 13:07:34;;;;;;;7.82;4.43;;;15.60;51.30;;;;;;5053077;28;20032;-80
2023/01/18 13:10:01;;;;;;;6.47;2.78;;;15.60;52.10;;;;;;5051647;28;20021;-80
2023/01/18 13:12:27;;;;;;;8.57;3.42;;;15.60;51.50;;;;;;5051992;28;20123;-80
2023/01/18 13:15:04;;;;;;;9.18;3.95;;;15.60;51.20;;;;;;5035371;28;20124;-80
2023/01/18 13:17:51;;;;;;;7.07;3.00;;;15.50;51.10;;;;;;5051481;28;20463;-80
2023/01/18 13:20:24;;;;;;;9.63;3.72;;;15.60;51.80;;;;;;5053247;28;20032;-81
2023/01/18 13:22:53;;;;;;;5.75;3.03;;;15.70;51.20;;;;;;5051822;28;20021;-80
2023/01/18 13:25:18;;;;;;;7.13;3.38;;;15.80;51.60;;;;;;5053114;28;20381;-80
2023/01/18 13:28:01;;;;;;;6.05;3.33;;;15.90;51.50;;;;;;5051534;28;20021;-80
2023/01/18 13:30:30;;;;;;;8.00;3.40;;;16.10;51.10;;;;;;5051882;28;20021;-79